Accueil
METAR-TAF:

METAR-TAF

Aéroports :

Majuro, Majuro Atoll, Îles Marshall

Aéroport international des îles Marshall

latitude: 07-04N, longitude: 171-17E, altitude: 2 m

Observation

Le bulletin a été fait il y a 40 minutes, à 21:51 UTC
Vent 16 kt de est/nord-est
Température 29°C
Humidité 74%
Pression 1009 hPa
Visibilité: 24.1 km
Quelques nuages à une hauteur de 1500 ft
Nuages épars à une hauteur de 5000 ft
Nuages fragmentés à une hauteur de 30000 ft

METAR: PKMJ 232151Z 06016KT 15SM FEW015 SCT050 BKN300 29/24 A2981

Heure: 10:31 (22:31 UTC)

Prévision

Le bulletin a été fait il y a 5 heures et 11 minutes, à 17:20 UTC
Prévision valable du 23 à 18 UTC au 24 à 18 UTC
Vent 13 kt de est
Visibilité: 10 km
Quelques nuages à une hauteur de 1500 ft
Nuages épars à une hauteur de 5000 ft
averses à proximité

TAF: PKMJ 231720Z 2318/2418 09013KT P6SM VCSH FEW015 SCT050

Observations et prévisions météorologiques de plus de 4000 aéroports (messages METAR et TAF).

Les stations disponibles sont représentées par des disques jaunes et rouges sur la carte.

Passer la souris dessus pour voir le nom de la station.

Cliquer dessus pour voir les observations et prévisions météorologiques.

Pour changer de carte: cliquez sur les boutons verts avec une croix noire pour zoomer, sur le bouton vert avec un tiret pour effectuer un zoom arrière, ou sur les flèches vertes pour les cartes adjacentes.


METAR-TAF: